sensor_id;sensor_type;location;lat;lon;timestamp;temperature;humidity
65826;DHT22;52586;-43.152;172.732;2024-03-22T00:00:52;20.80;50.40
65826;DHT22;52586;-43.152;172.732;2024-03-22T00:03:21;20.80;50.30
65826;DHT22;52586;-43.152;172.732;2024-03-22T00:05:52;20.80;50.30
65826;DHT22;52586;-43.152;172.732;2024-03-22T00:08:21;20.80;50.30
65826;DHT22;52586;-43.152;172.732;2024-03-22T00:10:52;20.90;50.30
65826;DHT22;52586;-43.152;172.732;2024-03-22T00:13:23;20.90;50.30
65826;DHT22;52586;-43.152;172.732;2024-03-22T00:15:54;20.90;50.30
65826;DHT22;52586;-43.152;172.732;2024-03-22T00:18:23;20.90;50.90
65826;DHT22;52586;-43.152;172.732;2024-03-22T00:20:54;21.00;50.30
65826;DHT22;52586;-43.152;172.732;2024-03-22T00:23:24;21.00;50.20
65826;DHT22;52586;-43.152;172.732;2024-03-22T00:25:55;21.00;50.20
65826;DHT22;52586;-43.152;172.732;2024-03-22T00:28:26;21.00;50.10
65826;DHT22;52586;-43.152;172.732;2024-03-22T00:30:56;21.00;50.10
65826;DHT22;52586;-43.152;172.732;2024-03-22T00:33:26;21.00;50.70
65826;DHT22;52586;-43.152;172.732;2024-03-22T00:35:56;21.10;50.20
65826;DHT22;52586;-43.152;172.732;2024-03-22T00:38:25;21.10;50.10
65826;DHT22;52586;-43.152;172.732;2024-03-22T00:40:56;21.10;50.10
65826;DHT22;52586;-43.152;172.732;2024-03-22T00:43:27;21.10;50.10
65826;DHT22;52586;-43.152;172.732;2024-03-22T00:45:58;21.20;50.20
65826;DHT22;52586;-43.152;172.732;2024-03-22T00:48:28;21.20;50.20
65826;DHT22;52586;-43.152;172.732;2024-03-22T00:50:58;21.20;50.10
65826;DHT22;52586;-43.152;172.732;2024-03-22T00:53:27;21.30;50.20
65826;DHT22;52586;-43.152;172.732;2024-03-22T00:55:58;21.30;50.20
65826;DHT22;52586;-43.152;172.732;2024-03-22T00:58:30;21.30;50.10
65826;DHT22;52586;-43.152;172.732;2024-03-22T01:01:00;21.40;50.10
65826;DHT22;52586;-43.152;172.732;2024-03-22T01:03:30;21.40;50.10
65826;DHT22;52586;-43.152;172.732;2024-03-22T01:06:00;21.40;50.10
65826;DHT22;52586;-43.152;172.732;2024-03-22T01:08:29;21.40;50.00
65826;DHT22;52586;-43.152;172.732;2024-03-22T01:11:00;21.50;50.00
65826;DHT22;52586;-43.152;172.732;2024-03-22T01:13:32;21.50;50.00
65826;DHT22;52586;-43.152;172.732;2024-03-22T01:16:03;21.50;50.10
65826;DHT22;52586;-43.152;172.732;2024-03-22T01:18:32;21.50;50.00
65826;DHT22;52586;-43.152;172.732;2024-03-22T01:21:06;21.60;50.10
65826;DHT22;52586;-43.152;172.732;2024-03-22T01:23:35;21.60;50.10
65826;DHT22;52586;-43.152;172.732;2024-03-22T01:26:06;21.60;50.00
65826;DHT22;52586;-43.152;172.732;2024-03-22T01:28:37;21.60;50.00
65826;DHT22;52586;-43.152;172.732;2024-03-22T01:31:07;21.70;50.10
65826;DHT22;52586;-43.152;172.732;2024-03-22T01:33:36;21.70;50.10
65826;DHT22;52586;-43.152;172.732;2024-03-22T01:36:07;21.70;50.00
65826;DHT22;52586;-43.152;172.732;2024-03-22T01:38:36;21.80;50.00
65826;DHT22;52586;-43.152;172.732;2024-03-22T01:41:07;21.80;49.90
65826;DHT22;52586;-43.152;172.732;2024-03-22T01:43:38;21.90;49.90
65826;DHT22;52586;-43.152;172.732;2024-03-22T01:46:09;21.90;49.80
65826;DHT22;52586;-43.152;172.732;2024-03-22T01:48:44;21.90;49.80
65826;DHT22;52586;-43.152;172.732;2024-03-22T01:51:15;21.90;49.70
65826;DHT22;52586;-43.152;172.732;2024-03-22T01:53:44;22.00;49.70
65826;DHT22;52586;-43.152;172.732;2024-03-22T01:56:15;22.00;49.60
65826;DHT22;52586;-43.152;172.732;2024-03-22T01:58:47;22.00;49.60
65826;DHT22;52586;-43.152;172.732;2024-03-22T02:01:18;22.00;49.70
65826;DHT22;52586;-43.152;172.732;2024-03-22T02:03:47;22.00;49.60
65826;DHT22;52586;-43.152;172.732;2024-03-22T02:06:18;22.10;49.70
65826;DHT22;52586;-43.152;172.732;2024-03-22T02:08:47;22.10;49.70
65826;DHT22;52586;-43.152;172.732;2024-03-22T02:11:18;22.10;49.60
65826;DHT22;52586;-43.152;172.732;2024-03-22T02:13:49;22.20;49.60
65826;DHT22;52586;-43.152;172.732;2024-03-22T02:16:19;22.20;49.60
65826;DHT22;52586;-43.152;172.732;2024-03-22T02:18:49;22.20;49.50
65826;DHT22;52586;-43.152;172.732;2024-03-22T02:21:19;22.30;49.40
65826;DHT22;52586;-43.152;172.732;2024-03-22T02:23:50;22.30;49.40
65826;DHT22;52586;-43.152;172.732;2024-03-22T02:26:21;22.30;49.40
65826;DHT22;52586;-43.152;172.732;2024-03-22T02:28:50;22.30;49.30
65826;DHT22;52586;-43.152;172.732;2024-03-22T02:31:21;22.40;49.30
65826;DHT22;52586;-43.152;172.732;2024-03-22T02:33:50;22.40;49.20
65826;DHT22;52586;-43.152;172.732;2024-03-22T02:36:20;22.40;49.20
65826;DHT22;52586;-43.152;172.732;2024-03-22T02:38:51;22.50;49.30
65826;DHT22;52586;-43.152;172.732;2024-03-22T02:41:22;22.50;49.30
65826;DHT22;52586;-43.152;172.732;2024-03-22T02:43:51;22.50;49.20
65826;DHT22;52586;-43.152;172.732;2024-03-22T02:46:22;22.50;49.10
65826;DHT22;52586;-43.152;172.732;2024-03-22T02:51:22;22.60;49.10
65826;DHT22;52586;-43.152;172.732;2024-03-22T02:53:55;22.60;49.10
65826;DHT22;52586;-43.152;172.732;2024-03-22T02:56:24;22.60;49.10
65826;DHT22;52586;-43.152;172.732;2024-03-22T02:58:55;22.70;49.10
65826;DHT22;52586;-43.152;172.732;2024-03-22T03:01:24;22.70;49.10
65826;DHT22;52586;-43.152;172.732;2024-03-22T03:03:54;22.70;49.10
65826;DHT22;52586;-43.152;172.732;2024-03-22T03:06:24;22.70;49.00
65826;DHT22;52586;-43.152;172.732;2024-03-22T03:08:56;22.70;49.10
65826;DHT22;52586;-43.152;172.732;2024-03-22T03:11:25;22.80;49.10
65826;DHT22;52586;-43.152;172.732;2024-03-22T03:13:56;22.80;49.10
65826;DHT22;52586;-43.152;172.732;2024-03-22T03:16:25;22.90;49.10
65826;DHT22;52586;-43.152;172.732;2024-03-22T03:18:56;22.90;49.10
65826;DHT22;52586;-43.152;172.732;2024-03-22T03:21:25;22.90;49.00
65826;DHT22;52586;-43.152;172.732;2024-03-22T03:23:57;22.90;49.00
65826;DHT22;52586;-43.152;172.732;2024-03-22T03:26:26;22.90;48.90
65826;DHT22;52586;-43.152;172.732;2024-03-22T03:28:57;23.00;49.50
65826;DHT22;52586;-43.152;172.732;2024-03-22T03:31:26;23.00;48.90
65826;DHT22;52586;-43.152;172.732;2024-03-22T03:33:57;23.00;48.90
65826;DHT22;52586;-43.152;172.732;2024-03-22T03:36:26;23.00;48.80
65826;DHT22;52586;-43.152;172.732;2024-03-22T03:38:59;23.00;48.70
65826;DHT22;52586;-43.152;172.732;2024-03-22T03:41:28;23.00;48.70
65826;DHT22;52586;-43.152;172.732;2024-03-22T03:43:58;23.10;48.70
65826;DHT22;52586;-43.152;172.732;2024-03-22T03:46:27;23.10;48.70
65826;DHT22;52586;-43.152;172.732;2024-03-22T03:51:28;23.10;48.60
65826;DHT22;52586;-43.152;172.732;2024-03-22T03:54:00;23.10;48.50
65826;DHT22;52586;-43.152;172.732;2024-03-22T03:56:29;23.10;48.50
65826;DHT22;52586;-43.152;172.732;2024-03-22T03:59:00;23.20;48.50
65826;DHT22;52586;-43.152;172.732;2024-03-22T04:01:29;23.20;48.50
65826;DHT22;52586;-43.152;172.732;2024-03-22T04:04:00;23.20;48.50
65826;DHT22;52586;-43.152;172.732;2024-03-22T04:06:29;23.20;48.50
65826;DHT22;52586;-43.152;172.732;2024-03-22T04:09:01;23.30;48.50
65826;DHT22;52586;-43.152;172.732;2024-03-22T04:11:30;23.30;48.50
65826;DHT22;52586;-43.152;172.732;2024-03-22T04:14:01;23.30;48.50
65826;DHT22;52586;-43.152;172.732;2024-03-22T04:16:30;23.30;48.50
65826;DHT22;52586;-43.152;172.732;2024-03-22T04:19:01;23.30;48.50
65826;DHT22;52586;-43.152;172.732;2024-03-22T04:21:30;23.30;48.50
65826;DHT22;52586;-43.152;172.732;2024-03-22T04:24:03;23.30;48.50
65826;DHT22;52586;-43.152;172.732;2024-03-22T04:26:32;23.30;48.40
65826;DHT22;52586;-43.152;172.732;2024-03-22T04:29:03;23.30;48.40
65826;DHT22;52586;-43.152;172.732;2024-03-22T04:31:32;23.30;48.30
65826;DHT22;52586;-43.152;172.732;2024-03-22T04:34:03;23.30;48.30
65826;DHT22;52586;-43.152;172.732;2024-03-22T04:36:33;23.40;48.30
65826;DHT22;52586;-43.152;172.732;2024-03-22T04:39:06;23.40;48.20
65826;DHT22;52586;-43.152;172.732;2024-03-22T04:41:37;23.40;48.20
65826;DHT22;52586;-43.152;172.732;2024-03-22T04:44:11;23.40;48.20
65826;DHT22;52586;-43.152;172.732;2024-03-22T04:46:42;23.40;48.20
65826;DHT22;52586;-43.152;172.732;2024-03-22T04:49:12;23.40;48.20
65826;DHT22;52586;-43.152;172.732;2024-03-22T04:51:42;23.50;48.20
65826;DHT22;52586;-43.152;172.732;2024-03-22T04:54:15;23.40;48.70
65826;DHT22;52586;-43.152;172.732;2024-03-22T04:56:44;23.40;48.10
65826;DHT22;52586;-43.152;172.732;2024-03-22T04:59:15;23.50;48.20
65826;DHT22;52586;-43.152;172.732;2024-03-22T05:01:44;23.40;48.10
65826;DHT22;52586;-43.152;172.732;2024-03-22T05:04:15;23.40;48.10
65826;DHT22;52586;-43.152;172.732;2024-03-22T05:06:44;23.40;48.00
65826;DHT22;52586;-43.152;172.732;2024-03-22T05:09:16;23.50;48.10
65826;DHT22;52586;-43.152;172.732;2024-03-22T05:11:45;23.40;48.00
65826;DHT22;52586;-43.152;172.732;2024-03-22T05:14:19;23.50;48.10
65826;DHT22;52586;-43.152;172.732;2024-03-22T05:16:49;23.50;48.10
65826;DHT22;52586;-43.152;172.732;2024-03-22T05:19:20;23.50;48.10
65826;DHT22;52586;-43.152;172.732;2024-03-22T05:21:50;23.40;48.60
65826;DHT22;52586;-43.152;172.732;2024-03-22T05:24:21;23.40;47.90
65826;DHT22;52586;-43.152;172.732;2024-03-22T05:26:52;23.40;48.00
65826;DHT22;52586;-43.152;172.732;2024-03-22T05:29:21;23.50;48.10
65826;DHT22;52586;-43.152;172.732;2024-03-22T05:31:52;23.50;48.00
65826;DHT22;52586;-43.152;172.732;2024-03-22T05:34:21;23.50;48.00
65826;DHT22;52586;-43.152;172.732;2024-03-22T05:36:52;23.50;48.00
65826;DHT22;52586;-43.152;172.732;2024-03-22T05:39:23;23.50;48.00
65826;DHT22;52586;-43.152;172.732;2024-03-22T05:41:54;23.50;48.00
65826;DHT22;52586;-43.152;172.732;2024-03-22T05:44:23;23.50;47.90
65826;DHT22;52586;-43.152;172.732;2024-03-22T05:46:54;23.50;47.90
65826;DHT22;52586;-43.152;172.732;2024-03-22T05:49:23;23.50;47.80
65826;DHT22;52586;-43.152;172.732;2024-03-22T05:51:54;23.50;47.80
65826;DHT22;52586;-43.152;172.732;2024-03-22T05:54:25;23.50;47.80
65826;DHT22;52586;-43.152;172.732;2024-03-22T05:56:56;23.40;47.70
65826;DHT22;52586;-43.152;172.732;2024-03-22T05:59:25;23.50;47.70
65826;DHT22;52586;-43.152;172.732;2024-03-22T06:01:57;23.40;47.60
65826;DHT22;52586;-43.152;172.732;2024-03-22T06:04:26;23.40;47.60
65826;DHT22;52586;-43.152;172.732;2024-03-22T06:06:57;23.40;47.70
65826;DHT22;52586;-43.152;172.732;2024-03-22T06:09:29;23.40;47.70
65826;DHT22;52586;-43.152;172.732;2024-03-22T06:12:05;23.40;47.70
65826;DHT22;52586;-43.152;172.732;2024-03-22T06:14:36;23.40;47.70
65826;DHT22;52586;-43.152;172.732;2024-03-22T06:17:05;23.40;47.70
65826;DHT22;52586;-43.152;172.732;2024-03-22T06:19:36;23.40;47.70
65826;DHT22;52586;-43.152;172.732;2024-03-22T06:22:05;23.40;47.80
65826;DHT22;52586;-43.152;172.732;2024-03-22T06:24:38;23.40;47.70
65826;DHT22;52586;-43.152;172.732;2024-03-22T06:27:07;23.40;47.70
65826;DHT22;52586;-43.152;172.732;2024-03-22T06:29:38;23.40;47.70
65826;DHT22;52586;-43.152;172.732;2024-03-22T06:32:07;23.40;47.70
65826;DHT22;52586;-43.152;172.732;2024-03-22T06:34:38;23.40;47.60
65826;DHT22;52586;-43.152;172.732;2024-03-22T06:37:07;23.40;47.60
65826;DHT22;52586;-43.152;172.732;2024-03-22T06:39:40;23.40;47.50
65826;DHT22;52586;-43.152;172.732;2024-03-22T06:42:09;23.40;47.50
65826;DHT22;52586;-43.152;172.732;2024-03-22T06:44:39;23.40;47.50
65826;DHT22;52586;-43.152;172.732;2024-03-22T06:47:08;23.30;47.50
65826;DHT22;52586;-43.152;172.732;2024-03-22T06:49:39;23.30;47.50
65826;DHT22;52586;-43.152;172.732;2024-03-22T06:52:08;23.30;47.50
65826;DHT22;52586;-43.152;172.732;2024-03-22T06:54:41;23.30;47.50
65826;DHT22;52586;-43.152;172.732;2024-03-22T06:57:10;23.30;47.50
65826;DHT22;52586;-43.152;172.732;2024-03-22T06:59:40;23.30;47.60
65826;DHT22;52586;-43.152;172.732;2024-03-22T07:02:09;23.30;47.60
65826;DHT22;52586;-43.152;172.732;2024-03-22T07:04:41;23.30;47.60
65826;DHT22;52586;-43.152;172.732;2024-03-22T07:07:10;23.30;47.60
65826;DHT22;52586;-43.152;172.732;2024-03-22T07:09:43;23.20;47.50
65826;DHT22;52586;-43.152;172.732;2024-03-22T07:12:12;23.20;47.50
65826;DHT22;52586;-43.152;172.732;2024-03-22T07:14:42;23.20;47.60
65826;DHT22;52586;-43.152;172.732;2024-03-22T07:17:12;23.20;47.50
65826;DHT22;52586;-43.152;172.732;2024-03-22T07:19:43;23.20;47.60
65826;DHT22;52586;-43.152;172.732;2024-03-22T07:22:12;23.20;47.50
65826;DHT22;52586;-43.152;172.732;2024-03-22T07:24:44;23.20;47.60
65826;DHT22;52586;-43.152;172.732;2024-03-22T07:27:13;23.10;47.50
65826;DHT22;52586;-43.152;172.732;2024-03-22T07:29:45;23.10;47.50
65826;DHT22;52586;-43.152;172.732;2024-03-22T07:32:14;23.10;47.50
65826;DHT22;52586;-43.152;172.732;2024-03-22T07:34:47;23.10;47.50
65826;DHT22;52586;-43.152;172.732;2024-03-22T07:37:16;23.10;47.90
65826;DHT22;52586;-43.152;172.732;2024-03-22T07:39:50;23.10;47.50
65826;DHT22;52586;-43.152;172.732;2024-03-22T07:42:19;23.00;47.40
65826;DHT22;52586;-43.152;172.732;2024-03-22T07:44:49;23.10;47.50
65826;DHT22;52586;-43.152;172.732;2024-03-22T07:47:18;23.00;47.50
65826;DHT22;52586;-43.152;172.732;2024-03-22T07:49:50;23.00;47.50
65826;DHT22;52586;-43.152;172.732;2024-03-22T07:52:19;23.00;47.50
65826;DHT22;52586;-43.152;172.732;2024-03-22T07:54:51;23.00;47.50
65826;DHT22;52586;-43.152;172.732;2024-03-22T07:57:20;23.00;47.60
65826;DHT22;52586;-43.152;172.732;2024-03-22T07:59:51;23.00;47.60
65826;DHT22;52586;-43.152;172.732;2024-03-22T08:02:21;22.90;47.50
65826;DHT22;52586;-43.152;172.732;2024-03-22T08:04:51;22.90;47.50
65826;DHT22;52586;-43.152;172.732;2024-03-22T08:07:20;22.90;47.50
65826;DHT22;52586;-43.152;172.732;2024-03-22T08:09:53;22.90;47.50
65826;DHT22;52586;-43.152;172.732;2024-03-22T08:12:23;22.90;47.50
65826;DHT22;52586;-43.152;172.732;2024-03-22T08:14:54;22.90;47.50
65826;DHT22;52586;-43.152;172.732;2024-03-22T08:17:23;22.90;47.50
65826;DHT22;52586;-43.152;172.732;2024-03-22T08:19:54;22.80;47.50
65826;DHT22;52586;-43.152;172.732;2024-03-22T08:22:23;22.80;47.60
65826;DHT22;52586;-43.152;172.732;2024-03-22T08:24:55;22.80;47.50
65826;DHT22;52586;-43.152;172.732;2024-03-22T08:27:24;22.70;47.50
65826;DHT22;52586;-43.152;172.732;2024-03-22T08:29:55;22.70;47.50
65826;DHT22;52586;-43.152;172.732;2024-03-22T08:32:24;22.70;47.60
65826;DHT22;52586;-43.152;172.732;2024-03-22T08:34:54;22.70;47.60
65826;DHT22;52586;-43.152;172.732;2024-03-22T08:37:24;22.70;47.50
65826;DHT22;52586;-43.152;172.732;2024-03-22T08:39:57;22.70;47.50
65826;DHT22;52586;-43.152;172.732;2024-03-22T08:42:26;22.70;47.60
65826;DHT22;52586;-43.152;172.732;2024-03-22T08:44:56;22.70;47.60
65826;DHT22;52586;-43.152;172.732;2024-03-22T08:47:25;22.60;47.60
65826;DHT22;52586;-43.152;172.732;2024-03-22T08:49:56;22.60;47.60
65826;DHT22;52586;-43.152;172.732;2024-03-22T08:52:25;22.60;47.70
65826;DHT22;52586;-43.152;172.732;2024-03-22T08:54:57;22.60;47.70
65826;DHT22;52586;-43.152;172.732;2024-03-22T08:57:27;22.60;47.70
65826;DHT22;52586;-43.152;172.732;2024-03-22T08:59:57;22.60;47.70
65826;DHT22;52586;-43.152;172.732;2024-03-22T09:02:26;22.60;47.70
65826;DHT22;52586;-43.152;172.732;2024-03-22T09:04:57;22.50;47.60
65826;DHT22;52586;-43.152;172.732;2024-03-22T09:07:26;22.50;47.60
65826;DHT22;52586;-43.152;172.732;2024-03-22T09:09:59;22.50;47.60
65826;DHT22;52586;-43.152;172.732;2024-03-22T09:12:28;22.50;47.70
65826;DHT22;52586;-43.152;172.732;2024-03-22T09:14:58;22.50;47.70
65826;DHT22;52586;-43.152;172.732;2024-03-22T09:17:28;22.40;47.60
65826;DHT22;52586;-43.152;172.732;2024-03-22T09:19:59;22.40;47.60
65826;DHT22;52586;-43.152;172.732;2024-03-22T09:22:28;22.40;47.60
65826;DHT22;52586;-43.152;172.732;2024-03-22T09:25:02;22.40;47.60
65826;DHT22;52586;-43.152;172.732;2024-03-22T09:27:31;22.30;47.60
65826;DHT22;52586;-43.152;172.732;2024-03-22T09:30:02;22.30;47.70
65826;DHT22;52586;-43.152;172.732;2024-03-22T09:32:31;22.30;47.70
65826;DHT22;52586;-43.152;172.732;2024-03-22T09:35:02;22.30;47.70
65826;DHT22;52586;-43.152;172.732;2024-03-22T09:37:31;22.30;47.70
65826;DHT22;52586;-43.152;172.732;2024-03-22T09:40:05;22.30;47.70
65826;DHT22;52586;-43.152;172.732;2024-03-22T09:42:38;22.30;47.70
65826;DHT22;52586;-43.152;172.732;2024-03-22T09:45:10;22.20;47.60
65826;DHT22;52586;-43.152;172.732;2024-03-22T09:47:40;22.20;47.80
65826;DHT22;52586;-43.152;172.732;2024-03-22T09:50:12;22.20;47.60
65826;DHT22;52586;-43.152;172.732;2024-03-22T09:52:42;22.20;47.60
65826;DHT22;52586;-43.152;172.732;2024-03-22T09:55:15;22.20;47.60
65826;DHT22;52586;-43.152;172.732;2024-03-22T09:57:45;22.20;47.60
65826;DHT22;52586;-43.152;172.732;2024-03-22T10:00:18;22.10;47.60
65826;DHT22;52586;-43.152;172.732;2024-03-22T10:02:51;22.10;47.60
65826;DHT22;52586;-43.152;172.732;2024-03-22T10:05:21;22.10;47.70
65826;DHT22;52586;-43.152;172.732;2024-03-22T10:07:50;22.10;47.60
65826;DHT22;52586;-43.152;172.732;2024-03-22T10:10:24;22.00;47.60
65826;DHT22;52586;-43.152;172.732;2024-03-22T10:12:53;22.00;47.60
65826;DHT22;52586;-43.152;172.732;2024-03-22T10:15:25;22.00;47.70
65826;DHT22;52586;-43.152;172.732;2024-03-22T10:17:56;22.00;47.70
65826;DHT22;52586;-43.152;172.732;2024-03-22T10:20:27;22.00;47.70
65826;DHT22;52586;-43.152;172.732;2024-03-22T10:22:57;22.00;47.70
65826;DHT22;52586;-43.152;172.732;2024-03-22T10:25:30;21.90;47.70
65826;DHT22;52586;-43.152;172.732;2024-03-22T10:28:00;22.00;47.70
65826;DHT22;52586;-43.152;172.732;2024-03-22T10:30:36;22.00;47.70
65826;DHT22;52586;-43.152;172.732;2024-03-22T10:33:07;21.90;47.70
65826;DHT22;52586;-43.152;172.732;2024-03-22T10:35:37;21.90;47.60
65826;DHT22;52586;-43.152;172.732;2024-03-22T10:38:08;21.90;47.70
65826;DHT22;52586;-43.152;172.732;2024-03-22T10:40:43;21.90;47.70
65826;DHT22;52586;-43.152;172.732;2024-03-22T10:43:14;21.90;47.70
65826;DHT22;52586;-43.152;172.732;2024-03-22T10:45:49;21.90;47.70
65826;DHT22;52586;-43.152;172.732;2024-03-22T10:48:20;21.80;47.60
65826;DHT22;52586;-43.152;172.732;2024-03-22T10:50:53;21.80;47.60
65826;DHT22;52586;-43.152;172.732;2024-03-22T10:53:24;21.80;47.70
65826;DHT22;52586;-43.152;172.732;2024-03-22T10:55:58;21.80;47.70
65826;DHT22;52586;-43.152;172.732;2024-03-22T10:58:29;21.80;47.70
65826;DHT22;52586;-43.152;172.732;2024-03-22T11:00:59;21.70;47.60
65826;DHT22;52586;-43.152;172.732;2024-03-22T11:03:28;21.70;47.70
65826;DHT22;52586;-43.152;172.732;2024-03-22T11:06:01;21.70;47.70
65826;DHT22;52586;-43.152;172.732;2024-03-22T11:08:30;21.70;47.80
65826;DHT22;52586;-43.152;172.732;2024-03-22T11:11:12;21.70;47.70
65826;DHT22;52586;-43.152;172.732;2024-03-22T11:13:41;21.70;47.80
65826;DHT22;52586;-43.152;172.732;2024-03-22T11:16:12;21.70;47.70
65826;DHT22;52586;-43.152;172.732;2024-03-22T11:18:42;21.70;47.80
65826;DHT22;52586;-43.152;172.732;2024-03-22T11:21:13;21.70;47.70
65826;DHT22;52586;-43.152;172.732;2024-03-22T11:23:44;21.70;47.70
65826;DHT22;52586;-43.152;172.732;2024-03-22T11:26:17;21.70;47.70
65826;DHT22;52586;-43.152;172.732;2024-03-22T11:28:46;21.60;47.60
65826;DHT22;52586;-43.152;172.732;2024-03-22T11:31:17;21.60;47.70
65826;DHT22;52586;-43.152;172.732;2024-03-22T11:33:50;21.60;47.70
65826;DHT22;52586;-43.152;172.732;2024-03-22T11:36:22;21.60;47.70
65826;DHT22;52586;-43.152;172.732;2024-03-22T11:38:51;21.60;47.70
65826;DHT22;52586;-43.152;172.732;2024-03-22T11:41:28;21.50;47.70
65826;DHT22;52586;-43.152;172.732;2024-03-22T11:43:58;21.50;47.70
65826;DHT22;52586;-43.152;172.732;2024-03-22T11:46:29;21.50;47.70
65826;DHT22;52586;-43.152;172.732;2024-03-22T11:49:00;21.50;47.70
65826;DHT22;52586;-43.152;172.732;2024-03-22T11:51:30;21.50;47.70
65826;DHT22;52586;-43.152;172.732;2024-03-22T11:53:59;21.50;47.70
65826;DHT22;52586;-43.152;172.732;2024-03-22T11:56:35;21.50;47.70
65826;DHT22;52586;-43.152;172.732;2024-03-22T11:59:05;21.50;47.80
65826;DHT22;52586;-43.152;172.732;2024-03-22T12:01:36;21.40;48.40
65826;DHT22;52586;-43.152;172.732;2024-03-22T12:04:06;21.40;47.80
65826;DHT22;52586;-43.152;172.732;2024-03-22T12:06:37;21.40;47.80
65826;DHT22;52586;-43.152;172.732;2024-03-22T12:09:07;21.40;47.80
65826;DHT22;52586;-43.152;172.732;2024-03-22T12:11:41;21.40;47.70
65826;DHT22;52586;-43.152;172.732;2024-03-22T12:14:11;21.40;47.70
65826;DHT22;52586;-43.152;172.732;2024-03-22T12:16:41;21.40;47.70
65826;DHT22;52586;-43.152;172.732;2024-03-22T12:19:10;21.40;47.80
65826;DHT22;52586;-43.152;172.732;2024-03-22T12:21:41;21.40;47.80
65826;DHT22;52586;-43.152;172.732;2024-03-22T12:24:10;21.30;47.70
65826;DHT22;52586;-43.152;172.732;2024-03-22T12:26:43;21.30;47.70
65826;DHT22;52586;-43.152;172.732;2024-03-22T12:29:12;21.30;47.80
65826;DHT22;52586;-43.152;172.732;2024-03-22T12:31:43;21.30;47.70
65826;DHT22;52586;-43.152;172.732;2024-03-22T12:34:13;21.30;47.70
65826;DHT22;52586;-43.152;172.732;2024-03-22T12:36:44;21.20;47.70
65826;DHT22;52586;-43.152;172.732;2024-03-22T12:39:13;21.20;47.70
65826;DHT22;52586;-43.152;172.732;2024-03-22T12:41:46;21.20;47.80
65826;DHT22;52586;-43.152;172.732;2024-03-22T12:44:15;21.20;47.80
65826;DHT22;52586;-43.152;172.732;2024-03-22T12:46:46;21.20;47.80
65826;DHT22;52586;-43.152;172.732;2024-03-22T12:49:15;21.20;47.80
65826;DHT22;52586;-43.152;172.732;2024-03-22T12:51:45;21.20;47.90
65826;DHT22;52586;-43.152;172.732;2024-03-22T12:54:15;21.20;47.90
65826;DHT22;52586;-43.152;172.732;2024-03-22T12:56:48;21.20;47.90
65826;DHT22;52586;-43.152;172.732;2024-03-22T12:59:17;21.20;47.90
65826;DHT22;52586;-43.152;172.732;2024-03-22T13:01:48;21.10;47.80
65826;DHT22;52586;-43.152;172.732;2024-03-22T13:04:19;21.10;47.80
65826;DHT22;52586;-43.152;172.732;2024-03-22T13:06:48;21.10;47.80
65826;DHT22;52586;-43.152;172.732;2024-03-22T13:09:19;21.10;47.80
65826;DHT22;52586;-43.152;172.732;2024-03-22T13:11:51;21.10;47.80
65826;DHT22;52586;-43.152;172.732;2024-03-22T13:14:21;21.10;47.80
65826;DHT22;52586;-43.152;172.732;2024-03-22T13:16:50;21.10;47.80
65826;DHT22;52586;-43.152;172.732;2024-03-22T13:19:21;21.10;47.90
65826;DHT22;52586;-43.152;172.732;2024-03-22T13:21:50;21.10;47.90
65826;DHT22;52586;-43.152;172.732;2024-03-22T13:24:21;21.10;47.90
65826;DHT22;52586;-43.152;172.732;2024-03-22T13:26:52;21.00;47.90
65826;DHT22;52586;-43.152;172.732;2024-03-22T13:29:22;21.00;47.90
65826;DHT22;52586;-43.152;172.732;2024-03-22T13:31:54;21.00;47.90
65826;DHT22;52586;-43.152;172.732;2024-03-22T13:34:23;21.00;47.90
65826;DHT22;52586;-43.152;172.732;2024-03-22T13:36:54;21.00;48.00
65826;DHT22;52586;-43.152;172.732;2024-03-22T13:39:23;21.00;47.90
65826;DHT22;52586;-43.152;172.732;2024-03-22T13:41:55;21.00;47.90
65826;DHT22;52586;-43.152;172.732;2024-03-22T13:44:25;21.00;48.00
65826;DHT22;52586;-43.152;172.732;2024-03-22T13:46:55;21.00;48.00
65826;DHT22;52586;-43.152;172.732;2024-03-22T13:49:24;21.00;47.90
65826;DHT22;52586;-43.152;172.732;2024-03-22T13:51:57;21.00;47.90
65826;DHT22;52586;-43.152;172.732;2024-03-22T13:54:27;20.90;47.90
65826;DHT22;52586;-43.152;172.732;2024-03-22T13:56:59;21.00;47.90
65826;DHT22;52586;-43.152;172.732;2024-03-22T13:59:29;20.90;47.90
65826;DHT22;52586;-43.152;172.732;2024-03-22T14:01:59;20.90;47.90
65826;DHT22;52586;-43.152;172.732;2024-03-22T14:04:28;20.90;47.90
65826;DHT22;52586;-43.152;172.732;2024-03-22T14:07:00;20.90;48.00
65826;DHT22;52586;-43.152;172.732;2024-03-22T14:09:32;20.90;47.90
65826;DHT22;52586;-43.152;172.732;2024-03-22T14:12:05;20.90;47.90
65826;DHT22;52586;-43.152;172.732;2024-03-22T14:14:34;20.80;47.90
65826;DHT22;52586;-43.152;172.732;2024-03-22T14:17:05;20.80;47.90
65826;DHT22;52586;-43.152;172.732;2024-03-22T14:19:34;20.80;47.90
65826;DHT22;52586;-43.152;172.732;2024-03-22T14:22:05;20.80;47.90
65826;DHT22;52586;-43.152;172.732;2024-03-22T14:24:34;20.80;48.00
65826;DHT22;52586;-43.152;172.732;2024-03-22T14:27:06;20.80;48.00
65826;DHT22;52586;-43.152;172.732;2024-03-22T14:29:35;20.80;48.00
65826;DHT22;52586;-43.152;172.732;2024-03-22T14:32:07;20.80;48.00
65826;DHT22;52586;-43.152;172.732;2024-03-22T14:34:36;20.80;48.00
65826;DHT22;52586;-43.152;172.732;2024-03-22T14:37:07;20.80;48.00
65826;DHT22;52586;-43.152;172.732;2024-03-22T14:39:36;20.80;47.90
65826;DHT22;52586;-43.152;172.732;2024-03-22T14:42:11;20.80;47.90
65826;DHT22;52586;-43.152;172.732;2024-03-22T14:44:40;20.80;47.90
65826;DHT22;52586;-43.152;172.732;2024-03-22T14:47:10;20.80;47.90
65826;DHT22;52586;-43.152;172.732;2024-03-22T14:49:40;20.80;48.00
65826;DHT22;52586;-43.152;172.732;2024-03-22T14:52:10;20.70;48.00
65826;DHT22;52586;-43.152;172.732;2024-03-22T14:54:39;20.70;48.00
65826;DHT22;52586;-43.152;172.732;2024-03-22T14:57:12;20.70;48.00
65826;DHT22;52586;-43.152;172.732;2024-03-22T14:59:41;20.70;48.00
65826;DHT22;52586;-43.152;172.732;2024-03-22T15:02:11;20.60;48.00
65826;DHT22;52586;-43.152;172.732;2024-03-22T15:04:40;20.60;48.00
65826;DHT22;52586;-43.152;172.732;2024-03-22T15:07:11;20.70;48.10
65826;DHT22;52586;-43.152;172.732;2024-03-22T15:09:40;20.60;48.00
65826;DHT22;52586;-43.152;172.732;2024-03-22T15:12:13;20.60;48.00